sensor_id;sensor_type;location;lat;lon;timestamp;P1;durP1;ratioP1;P2;durP2;ratioP2
12145;SDS011;6136;47.032;15.398;2023-11-21T00:00:19;12.57;;;8.57;;
12145;SDS011;6136;47.032;15.398;2023-11-21T00:02:47;20.70;;;9.93;;
12145;SDS011;6136;47.032;15.398;2023-11-21T00:05:18;11.63;;;8.63;;
12145;SDS011;6136;47.032;15.398;2023-11-21T00:08:01;11.13;;;7.97;;
12145;SDS011;6136;47.032;15.398;2023-11-21T00:10:30;11.87;;;8.17;;
12145;SDS011;6136;47.032;15.398;2023-11-21T00:13:00;13.23;;;8.00;;
12145;SDS011;6136;47.032;15.398;2023-11-21T00:15:29;10.97;;;7.87;;
12145;SDS011;6136;47.032;15.398;2023-11-21T00:17:58;16.60;;;8.43;;
12145;SDS011;6136;47.032;15.398;2023-11-21T00:20:26;13.10;;;8.53;;
12145;SDS011;6136;47.032;15.398;2023-11-21T00:22:54;13.17;;;8.70;;
12145;SDS011;6136;47.032;15.398;2023-11-21T00:25:24;13.00;;;8.47;;
12145;SDS011;6136;47.032;15.398;2023-11-21T00:27:52;13.93;;;8.57;;
12145;SDS011;6136;47.032;15.398;2023-11-21T00:30:21;12.83;;;9.00;;
12145;SDS011;6136;47.032;15.398;2023-11-21T00:32:49;12.90;;;8.90;;
12145;SDS011;6136;47.032;15.398;2023-11-21T00:35:18;13.83;;;8.23;;
12145;SDS011;6136;47.032;15.398;2023-11-21T00:37:47;14.13;;;9.50;;
12145;SDS011;6136;47.032;15.398;2023-11-21T00:40:18;20.73;;;11.90;;
12145;SDS011;6136;47.032;15.398;2023-11-21T00:42:50;17.50;;;11.27;;
12145;SDS011;6136;47.032;15.398;2023-11-21T00:45:18;22.17;;;12.77;;
12145;SDS011;6136;47.032;15.398;2023-11-21T00:47:46;23.23;;;13.70;;
12145;SDS011;6136;47.032;15.398;2023-11-21T00:50:15;17.97;;;11.50;;
12145;SDS011;6136;47.032;15.398;2023-11-21T00:52:43;18.13;;;12.53;;
12145;SDS011;6136;47.032;15.398;2023-11-21T00:55:12;23.10;;;12.00;;
12145;SDS011;6136;47.032;15.398;2023-11-21T00:57:40;18.17;;;12.53;;
12145;SDS011;6136;47.032;15.398;2023-11-21T01:00:10;20.43;;;11.87;;
12145;SDS011;6136;47.032;15.398;2023-11-21T01:02:41;24.50;;;12.40;;
12145;SDS011;6136;47.032;15.398;2023-11-21T01:05:10;20.60;;;12.63;;
12145;SDS011;6136;47.032;15.398;2023-11-21T01:07:39;24.23;;;15.03;;
12145;SDS011;6136;47.032;15.398;2023-11-21T01:10:08;20.93;;;12.83;;
12145;SDS011;6136;47.032;15.398;2023-11-21T01:12:37;17.10;;;11.80;;
12145;SDS011;6136;47.032;15.398;2023-11-21T01:15:06;18.20;;;11.27;;
12145;SDS011;6136;47.032;15.398;2023-11-21T01:17:36;18.03;;;11.37;;
12145;SDS011;6136;47.032;15.398;2023-11-21T01:20:05;17.13;;;10.57;;
12145;SDS011;6136;47.032;15.398;2023-11-21T01:22:39;17.10;;;11.37;;
12145;SDS011;6136;47.032;15.398;2023-11-21T01:25:08;17.33;;;10.60;;
12145;SDS011;6136;47.032;15.398;2023-11-21T01:27:37;16.63;;;10.90;;
12145;SDS011;6136;47.032;15.398;2023-11-21T01:30:06;20.07;;;12.10;;
12145;SDS011;6136;47.032;15.398;2023-11-21T01:32:38;16.20;;;10.83;;
12145;SDS011;6136;47.032;15.398;2023-11-21T01:35:08;22.50;;;12.40;;
12145;SDS011;6136;47.032;15.398;2023-11-21T01:37:37;18.90;;;10.63;;
12145;SDS011;6136;47.032;15.398;2023-11-21T01:40:06;14.50;;;10.87;;
12145;SDS011;6136;47.032;15.398;2023-11-21T01:42:40;21.47;;;11.73;;
12145;SDS011;6136;47.032;15.398;2023-11-21T01:45:10;19.00;;;12.43;;
12145;SDS011;6136;47.032;15.398;2023-11-21T01:47:41;16.90;;;10.70;;
12145;SDS011;6136;47.032;15.398;2023-11-21T01:50:13;17.93;;;11.27;;
12145;SDS011;6136;47.032;15.398;2023-11-21T01:52:45;17.30;;;11.30;;
12145;SDS011;6136;47.032;15.398;2023-11-21T01:55:15;18.73;;;11.83;;
12145;SDS011;6136;47.032;15.398;2023-11-21T01:57:54;18.20;;;10.97;;
12145;SDS011;6136;47.032;15.398;2023-11-21T02:00:24;18.60;;;11.47;;
12145;SDS011;6136;47.032;15.398;2023-11-21T02:02:57;14.70;;;10.63;;
12145;SDS011;6136;47.032;15.398;2023-11-21T02:05:26;15.03;;;10.97;;
12145;SDS011;6136;47.032;15.398;2023-11-21T02:07:57;17.07;;;11.70;;
12145;SDS011;6136;47.032;15.398;2023-11-21T02:10:27;19.07;;;10.80;;
12145;SDS011;6136;47.032;15.398;2023-11-21T02:12:58;15.10;;;10.40;;
12145;SDS011;6136;47.032;15.398;2023-11-21T02:15:29;17.00;;;10.80;;
12145;SDS011;6136;47.032;15.398;2023-11-21T02:17:59;20.37;;;11.50;;
12145;SDS011;6136;47.032;15.398;2023-11-21T02:20:30;21.83;;;11.17;;
12145;SDS011;6136;47.032;15.398;2023-11-21T02:23:04;16.17;;;11.37;;
12145;SDS011;6136;47.032;15.398;2023-11-21T02:25:33;16.40;;;11.93;;
12145;SDS011;6136;47.032;15.398;2023-11-21T02:28:04;18.83;;;11.37;;
12145;SDS011;6136;47.032;15.398;2023-11-21T02:30:34;17.03;;;11.07;;
12145;SDS011;6136;47.032;15.398;2023-11-21T02:33:03;17.70;;;11.40;;
12145;SDS011;6136;47.032;15.398;2023-11-21T02:35:32;18.57;;;11.17;;
12145;SDS011;6136;47.032;15.398;2023-11-21T02:38:01;17.03;;;11.00;;
12145;SDS011;6136;47.032;15.398;2023-11-21T02:40:33;14.63;;;10.23;;
12145;SDS011;6136;47.032;15.398;2023-11-21T02:43:01;18.47;;;11.80;;
12145;SDS011;6136;47.032;15.398;2023-11-21T02:45:30;20.60;;;11.60;;
12145;SDS011;6136;47.032;15.398;2023-11-21T02:47:58;14.07;;;10.10;;
12145;SDS011;6136;47.032;15.398;2023-11-21T02:50:26;16.67;;;10.23;;
12145;SDS011;6136;47.032;15.398;2023-11-21T02:52:56;15.40;;;9.80;;
12145;SDS011;6136;47.032;15.398;2023-11-21T02:55:28;16.13;;;10.23;;
12145;SDS011;6136;47.032;15.398;2023-11-21T02:57:57;17.20;;;9.27;;
12145;SDS011;6136;47.032;15.398;2023-11-21T03:00:26;14.43;;;9.30;;
12145;SDS011;6136;47.032;15.398;2023-11-21T03:02:55;15.90;;;9.57;;
12145;SDS011;6136;47.032;15.398;2023-11-21T03:05:25;12.83;;;8.30;;
12145;SDS011;6136;47.032;15.398;2023-11-21T03:07:53;12.03;;;8.10;;
12145;SDS011;6136;47.032;15.398;2023-11-21T03:10:22;13.40;;;8.83;;
12145;SDS011;6136;47.032;15.398;2023-11-21T03:12:52;13.00;;;8.40;;
12145;SDS011;6136;47.032;15.398;2023-11-21T03:15:20;10.97;;;8.67;;
12145;SDS011;6136;47.032;15.398;2023-11-21T03:17:48;16.60;;;8.13;;
12145;SDS011;6136;47.032;15.398;2023-11-21T03:20:17;15.03;;;8.93;;
12145;SDS011;6136;47.032;15.398;2023-11-21T03:22:45;12.13;;;7.90;;
12145;SDS011;6136;47.032;15.398;2023-11-21T03:25:14;11.23;;;7.40;;
12145;SDS011;6136;47.032;15.398;2023-11-21T03:27:44;12.77;;;8.43;;
12145;SDS011;6136;47.032;15.398;2023-11-21T03:30:14;13.37;;;7.80;;
12145;SDS011;6136;47.032;15.398;2023-11-21T03:32:43;10.73;;;8.07;;
12145;SDS011;6136;47.032;15.398;2023-11-21T03:35:13;11.97;;;7.67;;
12145;SDS011;6136;47.032;15.398;2023-11-21T03:37:42;10.97;;;7.73;;
12145;SDS011;6136;47.032;15.398;2023-11-21T03:40:11;10.37;;;7.33;;
12145;SDS011;6136;47.032;15.398;2023-11-21T03:42:40;10.90;;;7.30;;
12145;SDS011;6136;47.032;15.398;2023-11-21T03:45:09;11.67;;;6.73;;
12145;SDS011;6136;47.032;15.398;2023-11-21T03:47:41;10.57;;;7.67;;
12145;SDS011;6136;47.032;15.398;2023-11-21T03:50:10;11.87;;;7.90;;
12145;SDS011;6136;47.032;15.398;2023-11-21T03:52:38;8.17;;;7.10;;
12145;SDS011;6136;47.032;15.398;2023-11-21T03:55:07;9.77;;;6.83;;
12145;SDS011;6136;47.032;15.398;2023-11-21T03:57:41;10.40;;;6.80;;
12145;SDS011;6136;47.032;15.398;2023-11-21T04:00:10;8.73;;;6.63;;
12145;SDS011;6136;47.032;15.398;2023-11-21T04:02:41;12.47;;;7.50;;
12145;SDS011;6136;47.032;15.398;2023-11-21T04:05:09;12.63;;;7.37;;
12145;SDS011;6136;47.032;15.398;2023-11-21T04:07:39;11.47;;;7.57;;
12145;SDS011;6136;47.032;15.398;2023-11-21T04:10:07;10.20;;;6.67;;
12145;SDS011;6136;47.032;15.398;2023-11-21T04:12:39;11.23;;;7.07;;
12145;SDS011;6136;47.032;15.398;2023-11-21T04:15:08;13.77;;;7.57;;
12145;SDS011;6136;47.032;15.398;2023-11-21T04:17:37;13.27;;;7.40;;
12145;SDS011;6136;47.032;15.398;2023-11-21T04:20:08;8.87;;;7.00;;
12145;SDS011;6136;47.032;15.398;2023-11-21T04:22:37;9.63;;;6.83;;
12145;SDS011;6136;47.032;15.398;2023-11-21T04:25:12;8.83;;;7.00;;
12145;SDS011;6136;47.032;15.398;2023-11-21T04:27:42;10.43;;;6.57;;
12145;SDS011;6136;47.032;15.398;2023-11-21T04:30:12;8.97;;;6.97;;
12145;SDS011;6136;47.032;15.398;2023-11-21T04:32:42;8.63;;;6.03;;
12145;SDS011;6136;47.032;15.398;2023-11-21T04:35:12;10.60;;;6.83;;
12145;SDS011;6136;47.032;15.398;2023-11-21T04:37:41;11.13;;;7.40;;
12145;SDS011;6136;47.032;15.398;2023-11-21T04:40:10;10.43;;;7.10;;
12145;SDS011;6136;47.032;15.398;2023-11-21T04:42:39;11.10;;;7.30;;
12145;SDS011;6136;47.032;15.398;2023-11-21T04:45:08;8.50;;;6.43;;
12145;SDS011;6136;47.032;15.398;2023-11-21T04:47:39;9.20;;;6.90;;
12145;SDS011;6136;47.032;15.398;2023-11-21T04:50:08;9.67;;;7.20;;
12145;SDS011;6136;47.032;15.398;2023-11-21T04:52:38;11.93;;;7.57;;
12145;SDS011;6136;47.032;15.398;2023-11-21T04:55:07;10.63;;;7.10;;
12145;SDS011;6136;47.032;15.398;2023-11-21T04:57:37;8.57;;;7.17;;
12145;SDS011;6136;47.032;15.398;2023-11-21T05:00:09;9.67;;;7.03;;
12145;SDS011;6136;47.032;15.398;2023-11-21T05:02:39;8.67;;;6.57;;
12145;SDS011;6136;47.032;15.398;2023-11-21T05:05:08;11.47;;;7.43;;
12145;SDS011;6136;47.032;15.398;2023-11-21T05:07:39;12.20;;;7.67;;
12145;SDS011;6136;47.032;15.398;2023-11-21T05:10:09;11.83;;;8.00;;
12145;SDS011;6136;47.032;15.398;2023-11-21T05:12:39;14.17;;;8.00;;
12145;SDS011;6136;47.032;15.398;2023-11-21T05:15:09;12.57;;;7.60;;
12145;SDS011;6136;47.032;15.398;2023-11-21T05:17:40;12.80;;;8.20;;
12145;SDS011;6136;47.032;15.398;2023-11-21T05:20:10;12.53;;;7.83;;
12145;SDS011;6136;47.032;15.398;2023-11-21T05:22:42;15.37;;;8.20;;
12145;SDS011;6136;47.032;15.398;2023-11-21T05:25:11;16.03;;;8.77;;
12145;SDS011;6136;47.032;15.398;2023-11-21T05:27:39;13.80;;;8.17;;
12145;SDS011;6136;47.032;15.398;2023-11-21T05:30:08;11.33;;;7.60;;
12145;SDS011;6136;47.032;15.398;2023-11-21T05:32:39;12.77;;;7.30;;
12145;SDS011;6136;47.032;15.398;2023-11-21T05:35:09;13.17;;;7.50;;
12145;SDS011;6136;47.032;15.398;2023-11-21T05:37:43;14.07;;;7.47;;
12145;SDS011;6136;47.032;15.398;2023-11-21T05:40:13;11.43;;;7.63;;
12145;SDS011;6136;47.032;15.398;2023-11-21T05:42:42;17.00;;;8.33;;
12145;SDS011;6136;47.032;15.398;2023-11-21T05:45:10;9.70;;;7.70;;
12145;SDS011;6136;47.032;15.398;2023-11-21T05:47:40;12.53;;;7.57;;
12145;SDS011;6136;47.032;15.398;2023-11-21T05:50:10;13.40;;;8.47;;
12145;SDS011;6136;47.032;15.398;2023-11-21T05:52:42;14.33;;;7.13;;
12145;SDS011;6136;47.032;15.398;2023-11-21T05:55:12;12.57;;;7.90;;
12145;SDS011;6136;47.032;15.398;2023-11-21T05:57:42;11.73;;;7.63;;
12145;SDS011;6136;47.032;15.398;2023-11-21T06:00:11;14.47;;;7.30;;
12145;SDS011;6136;47.032;15.398;2023-11-21T06:02:48;17.00;;;7.90;;
12145;SDS011;6136;47.032;15.398;2023-11-21T06:05:21;14.47;;;8.37;;
12145;SDS011;6136;47.032;15.398;2023-11-21T06:07:54;10.93;;;7.97;;
12145;SDS011;6136;47.032;15.398;2023-11-21T06:10:26;9.60;;;7.27;;
12145;SDS011;6136;47.032;15.398;2023-11-21T06:12:55;13.13;;;8.33;;
12145;SDS011;6136;47.032;15.398;2023-11-21T06:15:29;19.50;;;9.13;;
12145;SDS011;6136;47.032;15.398;2023-11-21T06:17:57;17.17;;;10.47;;
12145;SDS011;6136;47.032;15.398;2023-11-21T06:20:27;15.67;;;10.83;;
12145;SDS011;6136;47.032;15.398;2023-11-21T06:22:57;14.20;;;9.10;;
12145;SDS011;6136;47.032;15.398;2023-11-21T06:25:25;14.50;;;8.40;;
12145;SDS011;6136;47.032;15.398;2023-11-21T06:27:54;11.17;;;8.37;;
12145;SDS011;6136;47.032;15.398;2023-11-21T06:30:23;14.60;;;8.60;;
12145;SDS011;6136;47.032;15.398;2023-11-21T06:32:51;16.20;;;9.43;;
12145;SDS011;6136;47.032;15.398;2023-11-21T06:35:20;12.60;;;8.83;;
12145;SDS011;6136;47.032;15.398;2023-11-21T06:37:49;13.63;;;8.77;;
12145;SDS011;6136;47.032;15.398;2023-11-21T06:40:20;15.93;;;9.50;;
12145;SDS011;6136;47.032;15.398;2023-11-21T06:42:48;13.80;;;9.53;;
12145;SDS011;6136;47.032;15.398;2023-11-21T06:45:18;22.50;;;9.37;;
12145;SDS011;6136;47.032;15.398;2023-11-21T06:47:47;16.17;;;9.27;;
12145;SDS011;6136;47.032;15.398;2023-11-21T06:50:16;14.70;;;9.50;;
12145;SDS011;6136;47.032;15.398;2023-11-21T06:52:45;19.63;;;10.33;;
12145;SDS011;6136;47.032;15.398;2023-11-21T06:55:14;15.80;;;9.87;;
12145;SDS011;6136;47.032;15.398;2023-11-21T06:57:44;17.33;;;9.90;;
12145;SDS011;6136;47.032;15.398;2023-11-21T07:00:15;19.40;;;10.20;;
12145;SDS011;6136;47.032;15.398;2023-11-21T07:02:45;14.20;;;8.90;;
12145;SDS011;6136;47.032;15.398;2023-11-21T07:05:14;10.30;;;7.77;;
12145;SDS011;6136;47.032;15.398;2023-11-21T07:07:48;12.57;;;8.40;;
12145;SDS011;6136;47.032;15.398;2023-11-21T07:10:17;11.37;;;8.23;;
12145;SDS011;6136;47.032;15.398;2023-11-21T07:12:47;16.87;;;9.37;;
12145;SDS011;6136;47.032;15.398;2023-11-21T07:15:15;20.03;;;10.17;;
12145;SDS011;6136;47.032;15.398;2023-11-21T07:17:43;19.50;;;9.53;;
12145;SDS011;6136;47.032;15.398;2023-11-21T07:20:13;20.63;;;11.63;;
12145;SDS011;6136;47.032;15.398;2023-11-21T07:22:44;18.47;;;10.43;;
12145;SDS011;6136;47.032;15.398;2023-11-21T07:25:12;16.80;;;10.07;;
12145;SDS011;6136;47.032;15.398;2023-11-21T07:27:40;18.37;;;10.43;;
12145;SDS011;6136;47.032;15.398;2023-11-21T07:30:11;22.07;;;12.60;;
12145;SDS011;6136;47.032;15.398;2023-11-21T07:32:40;25.83;;;13.07;;
12145;SDS011;6136;47.032;15.398;2023-11-21T07:35:09;30.03;;;14.77;;
12145;SDS011;6136;47.032;15.398;2023-11-21T07:37:37;31.77;;;16.20;;
12145;SDS011;6136;47.032;15.398;2023-11-21T07:40:06;32.20;;;17.13;;
12145;SDS011;6136;47.032;15.398;2023-11-21T07:42:36;30.27;;;17.30;;
12145;SDS011;6136;47.032;15.398;2023-11-21T07:45:05;34.87;;;16.67;;
12145;SDS011;6136;47.032;15.398;2023-11-21T07:47:36;24.77;;;13.10;;
12145;SDS011;6136;47.032;15.398;2023-11-21T07:50:06;20.07;;;11.80;;
12145;SDS011;6136;47.032;15.398;2023-11-21T07:52:36;19.70;;;11.53;;
12145;SDS011;6136;47.032;15.398;2023-11-21T07:55:04;15.07;;;9.50;;
12145;SDS011;6136;47.032;15.398;2023-11-21T07:57:34;17.03;;;9.07;;
12145;SDS011;6136;47.032;15.398;2023-11-21T08:00:03;14.70;;;8.03;;
12145;SDS011;6136;47.032;15.398;2023-11-21T08:02:39;10.47;;;7.43;;
12145;SDS011;6136;47.032;15.398;2023-11-21T08:05:09;10.97;;;6.97;;
12145;SDS011;6136;47.032;15.398;2023-11-21T08:07:50;13.97;;;7.53;;
12145;SDS011;6136;47.032;15.398;2023-11-21T08:10:19;10.63;;;6.90;;
12145;SDS011;6136;47.032;15.398;2023-11-21T08:12:48;10.33;;;6.43;;
12145;SDS011;6136;47.032;15.398;2023-11-21T08:15:17;11.00;;;6.40;;
12145;SDS011;6136;47.032;15.398;2023-11-21T08:17:47;9.77;;;5.97;;
12145;SDS011;6136;47.032;15.398;2023-11-21T08:20:16;10.43;;;6.40;;
12145;SDS011;6136;47.032;15.398;2023-11-21T08:22:45;8.67;;;5.17;;
12145;SDS011;6136;47.032;15.398;2023-11-21T08:25:14;8.43;;;5.63;;
12145;SDS011;6136;47.032;15.398;2023-11-21T08:27:44;7.97;;;5.90;;
12145;SDS011;6136;47.032;15.398;2023-11-21T08:30:12;7.80;;;5.77;;
12145;SDS011;6136;47.032;15.398;2023-11-21T08:32:43;8.70;;;5.93;;
12145;SDS011;6136;47.032;15.398;2023-11-21T08:35:20;10.47;;;5.90;;
12145;SDS011;6136;47.032;15.398;2023-11-21T08:37:51;7.97;;;6.43;;
12145;SDS011;6136;47.032;15.398;2023-11-21T08:40:20;10.90;;;6.33;;
12145;SDS011;6136;47.032;15.398;2023-11-21T08:42:50;13.80;;;6.50;;
12145;SDS011;6136;47.032;15.398;2023-11-21T08:45:19;12.47;;;5.90;;
12145;SDS011;6136;47.032;15.398;2023-11-21T08:47:48;11.17;;;6.77;;
12145;SDS011;6136;47.032;15.398;2023-11-21T08:50:18;7.87;;;5.87;;
12145;SDS011;6136;47.032;15.398;2023-11-21T08:52:47;14.07;;;6.63;;
12145;SDS011;6136;47.032;15.398;2023-11-21T08:55:16;15.47;;;6.80;;
12145;SDS011;6136;47.032;15.398;2023-11-21T08:57:46;10.33;;;6.50;;
12145;SDS011;6136;47.032;15.398;2023-11-21T09:00:15;9.40;;;6.27;;
12145;SDS011;6136;47.032;15.398;2023-11-21T09:02:44;9.10;;;6.40;;
12145;SDS011;6136;47.032;15.398;2023-11-21T09:05:13;12.60;;;6.97;;
12145;SDS011;6136;47.032;15.398;2023-11-21T09:07:44;15.60;;;8.90;;
12145;SDS011;6136;47.032;15.398;2023-11-21T09:10:15;16.10;;;8.97;;
12145;SDS011;6136;47.032;15.398;2023-11-21T09:12:44;13.20;;;9.03;;
12145;SDS011;6136;47.032;15.398;2023-11-21T09:15:12;12.70;;;9.87;;
12145;SDS011;6136;47.032;15.398;2023-11-21T09:17:41;13.17;;;9.17;;
12145;SDS011;6136;47.032;15.398;2023-11-21T09:20:12;15.33;;;8.53;;
12145;SDS011;6136;47.032;15.398;2023-11-21T09:22:41;9.77;;;6.70;;
12145;SDS011;6136;47.032;15.398;2023-11-21T09:25:13;11.80;;;7.30;;
12145;SDS011;6136;47.032;15.398;2023-11-21T09:27:41;10.47;;;8.27;;
12145;SDS011;6136;47.032;15.398;2023-11-21T09:30:10;18.57;;;8.23;;
12145;SDS011;6136;47.032;15.398;2023-11-21T09:32:41;16.50;;;8.43;;
12145;SDS011;6136;47.032;15.398;2023-11-21T09:35:12;17.47;;;9.40;;
12145;SDS011;6136;47.032;15.398;2023-11-21T09:37:42;15.83;;;10.20;;
12145;SDS011;6136;47.032;15.398;2023-11-21T09:40:17;14.00;;;8.53;;
12145;SDS011;6136;47.032;15.398;2023-11-21T09:42:52;13.67;;;8.47;;
12145;SDS011;6136;47.032;15.398;2023-11-21T09:45:25;15.87;;;9.30;;
12145;SDS011;6136;47.032;15.398;2023-11-21T09:47:54;14.77;;;9.83;;
12145;SDS011;6136;47.032;15.398;2023-11-21T09:50:24;12.93;;;9.07;;
12145;SDS011;6136;47.032;15.398;2023-11-21T09:53:06;12.20;;;9.03;;
12145;SDS011;6136;47.032;15.398;2023-11-21T09:55:44;15.37;;;8.83;;
12145;SDS011;6136;47.032;15.398;2023-11-21T09:58:14;12.27;;;8.50;;
12145;SDS011;6136;47.032;15.398;2023-11-21T10:00:43;12.23;;;8.57;;
12145;SDS011;6136;47.032;15.398;2023-11-21T10:03:14;12.40;;;8.93;;
12145;SDS011;6136;47.032;15.398;2023-11-21T10:05:44;14.50;;;9.03;;
12145;SDS011;6136;47.032;15.398;2023-11-21T10:08:13;9.23;;;7.17;;
12145;SDS011;6136;47.032;15.398;2023-11-21T10:10:44;10.47;;;6.60;;
12145;SDS011;6136;47.032;15.398;2023-11-21T10:13:15;11.33;;;6.90;;
12145;SDS011;6136;47.032;15.398;2023-11-21T10:15:48;8.13;;;5.93;;
12145;SDS011;6136;47.032;15.398;2023-11-21T10:18:18;9.97;;;6.50;;
12145;SDS011;6136;47.032;15.398;2023-11-21T10:20:46;7.53;;;5.87;;
12145;SDS011;6136;47.032;15.398;2023-11-21T10:23:20;9.13;;;5.93;;
12145;SDS011;6136;47.032;15.398;2023-11-21T10:25:51;10.30;;;5.43;;
12145;SDS011;6136;47.032;15.398;2023-11-21T10:28:24;10.13;;;5.33;;
12145;SDS011;6136;47.032;15.398;2023-11-21T10:30:52;8.03;;;5.97;;
12145;SDS011;6136;47.032;15.398;2023-11-21T10:33:26;10.53;;;5.80;;
12145;SDS011;6136;47.032;15.398;2023-11-21T10:35:55;7.00;;;5.53;;
12145;SDS011;6136;47.032;15.398;2023-11-21T10:38:24;12.60;;;6.70;;
12145;SDS011;6136;47.032;15.398;2023-11-21T10:40:55;8.93;;;6.03;;
12145;SDS011;6136;47.032;15.398;2023-11-21T10:43:24;9.30;;;6.40;;
12145;SDS011;6136;47.032;15.398;2023-11-21T10:45:57;8.77;;;6.40;;
12145;SDS011;6136;47.032;15.398;2023-11-21T10:48:29;9.73;;;6.43;;
12145;SDS011;6136;47.032;15.398;2023-11-21T10:51:00;10.70;;;6.63;;
12145;SDS011;6136;47.032;15.398;2023-11-21T10:53:38;9.73;;;6.57;;
12145;SDS011;6136;47.032;15.398;2023-11-21T10:56:10;10.87;;;6.77;;
12145;SDS011;6136;47.032;15.398;2023-11-21T10:58:44;8.80;;;6.30;;
12145;SDS011;6136;47.032;15.398;2023-11-21T11:01:13;7.67;;;5.77;;
12145;SDS011;6136;47.032;15.398;2023-11-21T11:03:45;15.40;;;6.10;;
12145;SDS011;6136;47.032;15.398;2023-11-21T11:06:14;11.27;;;6.80;;
12145;SDS011;6136;47.032;15.398;2023-11-21T11:08:44;10.53;;;6.50;;
12145;SDS011;6136;47.032;15.398;2023-11-21T11:11:14;8.70;;;6.13;;
12145;SDS011;6136;47.032;15.398;2023-11-21T11:13:43;9.30;;;6.10;;
12145;SDS011;6136;47.032;15.398;2023-11-21T11:16:13;10.47;;;6.07;;
12145;SDS011;6136;47.032;15.398;2023-11-21T11:18:45;10.60;;;6.93;;
12145;SDS011;6136;47.032;15.398;2023-11-21T11:21:20;11.60;;;6.20;;
12145;SDS011;6136;47.032;15.398;2023-11-21T11:23:59;10.50;;;6.57;;
12145;SDS011;6136;47.032;15.398;2023-11-21T11:26:45;13.90;;;8.03;;
12145;SDS011;6136;47.032;15.398;2023-11-21T11:29:22;16.87;;;9.53;;
12145;SDS011;6136;47.032;15.398;2023-11-21T11:32:02;14.27;;;8.90;;
12145;SDS011;6136;47.032;15.398;2023-11-21T11:34:41;13.63;;;7.93;;
12145;SDS011;6136;47.032;15.398;2023-11-21T11:37:16;14.03;;;8.00;;
12145;SDS011;6136;47.032;15.398;2023-11-21T11:39:45;9.37;;;7.07;;
12145;SDS011;6136;47.032;15.398;2023-11-21T11:42:17;10.67;;;7.13;;
12145;SDS011;6136;47.032;15.398;2023-11-21T11:44:47;8.90;;;7.03;;
12145;SDS011;6136;47.032;15.398;2023-11-21T11:47:20;9.13;;;6.63;;
12145;SDS011;6136;47.032;15.398;2023-11-21T11:49:55;8.83;;;5.27;;
12145;SDS011;6136;47.032;15.398;2023-11-21T11:52:38;8.80;;;6.00;;
12145;SDS011;6136;47.032;15.398;2023-11-21T11:55:08;9.20;;;5.63;;
12145;SDS011;6136;47.032;15.398;2023-11-21T11:57:40;13.80;;;5.37;;
12145;SDS011;6136;47.032;15.398;2023-11-21T12:00:10;7.93;;;5.97;;
12145;SDS011;6136;47.032;15.398;2023-11-21T12:02:44;8.03;;;5.73;;
12145;SDS011;6136;47.032;15.398;2023-11-21T12:05:14;11.30;;;5.80;;
12145;SDS011;6136;47.032;15.398;2023-11-21T12:07:45;6.83;;;4.50;;
12145;SDS011;6136;47.032;15.398;2023-11-21T12:10:15;9.43;;;4.93;;
12145;SDS011;6136;47.032;15.398;2023-11-21T12:12:47;7.27;;;5.57;;
12145;SDS011;6136;47.032;15.398;2023-11-21T12:15:16;8.43;;;5.67;;
12145;SDS011;6136;47.032;15.398;2023-11-21T12:17:45;7.07;;;5.07;;
12145;SDS011;6136;47.032;15.398;2023-11-21T12:20:16;6.77;;;4.90;;
12145;SDS011;6136;47.032;15.398;2023-11-21T12:22:47;7.17;;;4.90;;
12145;SDS011;6136;47.032;15.398;2023-11-21T12:25:16;8.77;;;5.70;;
12145;SDS011;6136;47.032;15.398;2023-11-21T12:27:48;9.47;;;5.57;;
12145;SDS011;6136;47.032;15.398;2023-11-21T12:30:17;6.67;;;5.53;;
12145;SDS011;6136;47.032;15.398;2023-11-21T12:32:49;8.90;;;5.30;;
12145;SDS011;6136;47.032;15.398;2023-11-21T12:35:19;8.97;;;5.90;;
12145;SDS011;6136;47.032;15.398;2023-11-21T12:37:49;8.53;;;5.87;;
12145;SDS011;6136;47.032;15.398;2023-11-21T12:40:19;9.13;;;6.40;;
12145;SDS011;6136;47.032;15.398;2023-11-21T12:42:51;11.23;;;6.63;;
12145;SDS011;6136;47.032;15.398;2023-11-21T12:45:21;12.83;;;6.73;;
12145;SDS011;6136;47.032;15.398;2023-11-21T12:47:54;9.87;;;6.60;;
12145;SDS011;6136;47.032;15.398;2023-11-21T12:50:27;8.73;;;6.30;;
12145;SDS011;6136;47.032;15.398;2023-11-21T12:52:59;9.00;;;6.23;;
12145;SDS011;6136;47.032;15.398;2023-11-21T12:55:29;8.27;;;6.53;;
12145;SDS011;6136;47.032;15.398;2023-11-21T12:58:01;8.07;;;5.97;;
12145;SDS011;6136;47.032;15.398;2023-11-21T13:00:39;10.93;;;6.93;;
12145;SDS011;6136;47.032;15.398;2023-11-21T13:03:10;9.53;;;6.83;;
12145;SDS011;6136;47.032;15.398;2023-11-21T13:05:45;6.47;;;5.83;;
12145;SDS011;6136;47.032;15.398;2023-11-21T13:08:18;10.87;;;6.20;;
12145;SDS011;6136;47.032;15.398;2023-11-21T13:10:50;10.47;;;6.17;;
12145;SDS011;6136;47.032;15.398;2023-11-21T13:13:24;12.20;;;6.63;;
12145;SDS011;6136;47.032;15.398;2023-11-21T13:15:55;9.20;;;6.03;;
12145;SDS011;6136;47.032;15.398;2023-11-21T13:18:24;11.07;;;6.40;;
12145;SDS011;6136;47.032;15.398;2023-11-21T13:20:54;10.97;;;6.53;;
12145;SDS011;6136;47.032;15.398;2023-11-21T13:23:23;10.33;;;6.57;;
12145;SDS011;6136;47.032;15.398;2023-11-21T13:25:52;7.57;;;5.07;;
12145;SDS011;6136;47.032;15.398;2023-11-21T13:28:32;7.03;;;5.67;;
12145;SDS011;6136;47.032;15.398;2023-11-21T13:31:01;10.03;;;6.00;;
12145;SDS011;6136;47.032;15.398;2023-11-21T13:33:37;10.60;;;6.50;;
12145;SDS011;6136;47.032;15.398;2023-11-21T13:36:07;11.43;;;6.20;;
12145;SDS011;6136;47.032;15.398;2023-11-21T13:38:37;16.20;;;6.80;;
12145;SDS011;6136;47.032;15.398;2023-11-21T13:41:09;9.50;;;7.13;;
12145;SDS011;6136;47.032;15.398;2023-11-21T13:43:42;11.23;;;6.60;;
12145;SDS011;6136;47.032;15.398;2023-11-21T13:46:15;12.43;;;6.63;;
12145;SDS011;6136;47.032;15.398;2023-11-21T13:48:49;11.97;;;7.00;;
12145;SDS011;6136;47.032;15.398;2023-11-21T13:51:23;11.73;;;6.97;;
12145;SDS011;6136;47.032;15.398;2023-11-21T13:54:04;13.40;;;6.63;;
12145;SDS011;6136;47.032;15.398;2023-11-21T13:56:36;10.80;;;7.27;;
12145;SDS011;6136;47.032;15.398;2023-11-21T13:59:08;11.90;;;7.53;;
12145;SDS011;6136;47.032;15.398;2023-11-21T14:01:47;11.87;;;7.93;;
12145;SDS011;6136;47.032;15.398;2023-11-21T14:04:25;10.67;;;7.03;;
12145;SDS011;6136;47.032;15.398;2023-11-21T14:07:13;11.33;;;6.77;;
12145;SDS011;6136;47.032;15.398;2023-11-21T14:09:53;10.70;;;8.13;;
12145;SDS011;6136;47.032;15.398;2023-11-21T14:12:22;10.50;;;7.10;;
12145;SDS011;6136;47.032;15.398;2023-11-21T14:14:52;11.23;;;7.10;;
12145;SDS011;6136;47.032;15.398;2023-11-21T14:17:21;11.47;;;7.10;;
12145;SDS011;6136;47.032;15.398;2023-11-21T14:19:51;17.07;;;9.20;;
12145;SDS011;6136;47.032;15.398;2023-11-21T14:22:22;15.17;;;9.33;;
12145;SDS011;6136;47.032;15.398;2023-11-21T14:24:52;8.83;;;6.70;;
12145;SDS011;6136;47.032;15.398;2023-11-21T14:27:22;8.07;;;6.60;;
12145;SDS011;6136;47.032;15.398;2023-11-21T14:29:52;11.20;;;7.43;;
12145;SDS011;6136;47.032;15.398;2023-11-21T14:32:20;9.30;;;7.77;;
12145;SDS011;6136;47.032;15.398;2023-11-21T14:34:49;12.50;;;7.87;;
12145;SDS011;6136;47.032;15.398;2023-11-21T14:37:17;12.50;;;7.80;;
12145;SDS011;6136;47.032;15.398;2023-11-21T14:39:46;12.70;;;8.43;;
12145;SDS011;6136;47.032;15.398;2023-11-21T14:42:16;13.60;;;8.53;;
12145;SDS011;6136;47.032;15.398;2023-11-21T14:44:53;12.40;;;8.23;;
12145;SDS011;6136;47.032;15.398;2023-11-21T14:47:26;11.30;;;9.13;;
12145;SDS011;6136;47.032;15.398;2023-11-21T14:49:55;14.13;;;8.73;;
12145;SDS011;6136;47.032;15.398;2023-11-21T14:52:26;10.60;;;8.70;;
12145;SDS011;6136;47.032;15.398;2023-11-21T14:55:02;12.73;;;8.63;;